Terminal Aerodrome Forecast
Issued by NWS

Home | Current Version | Previous Version | Text Only | Print | Product List | Glossary On
Versions: 1 2 3 4 5 6 7 8 9 10 11 12 13
000
FTUS42 KGSP 241732
TAFGMU
TAF
KGMU 241732Z 2418/2518 18003KT P6SM SCT160
     FM242100 23003KT P6SM SCT160
     FM250300 00000KT P6SM FEW200
     FM250800 00000KT P6SM SKC=

USA.gov is the U.S. government's official web portal to all federal, state and local government web resources and services.